Tiempo atmosférico en la estación meteorológica de Roquetas de Mar, Almería (7 m.)



Fecha
DESCASC
Temp. máxima en grados centígrados (hora)
DESCASC
Temp. mínima en grados centígrados (hora)
DESCASC
Temp. media en grados centígrados
DESCASC
Racha de viento máxima en m/sg (hora)
DESCASC
Velocidad máxima media en intervalos de 10 minutos(hora)
DESCASC
Precipitaciones diarias en mm
DESCASC
Precipitaciones de 00:00 a 06:00 en mm
DESCASC
Precipitaciones de 06:00 a 12:00 en mm
DESCASC
Precipitaciones de 12:00 a 18:00 en mm
DESCASC
Precipitaciones de 18:00 a 24:00 en mm
DESCASC
14-12-2019 19.5 (16:10) 6.9 (07:10) 13.2 11.11 (16:40) 6.67 (16:40) 0 0 0 0 0
13-12-2019 17.9 (14:50) 12.5 (23:59) 15.2 25 (12:00) 16.67 (12:00) 0.2 0 0.2 0 0
12-12-2019 18.4 (15:10) 9.3 (08:30) 13.8 13.61 (23:59) 6.94 (23:59) 0 0 0 0 0
11-12-2019 19.1 (16:10) 7.4 (00:00) 13.3 6.94 (01:50) 4.44 (23:40) 0 0 0 0 0
10-12-2019 18 (15:10) 7.2 (00:00) 12.6 8.61 (19:20) 5.83 (19:20) 0 0 0 0 0
09-12-2019 19.5 (16:10) 8.2 (00:00) 13.8 6.67 (17:30) 4.17 (17:30) 0 0 0 0 0
08-12-2019 17.2 (15:30) 8.2 (00:00) 12.7 11.39 (14:40) 7.22 (16:40) 0 0 0 0 0
07-12-2019 18.7 (14:30) 12.1 (00:00) 15.4 10 (01:50) 6.67 (01:50) 0 0 0 0 0
06-12-2019 19.9 (13:00) 14.9 (00:00) 17.4 16.94 (16:40) 10 (12:20) 0 0 0 0 0
05-12-2019 17.9 (14:00) 10.4 (00:00) 14.1 15.28 (21:30) 9.72 (21:30) -- -- -- 1 0
04-12-2019 -- (--) -- (--) -- -- (--) -- (--) -- -- -- -- --
03-12-2019 -- (--) -- (--) -- -- (--) -- (--) -- -- -- -- --
02-12-2019 18.3 (15:20) 9.8 (00:00) 14 14.72 (18:10) 8.61 (18:10) -- -- -- -- --
01-12-2019 17.6 (12:00) 14.3 (00:00) 16 17.22 (15:40) 10.56 (14:50) -- -- -- -- --
30-11-2019 19 (15:40) 9.2 (00:00) 14.1 10.56 (22:40) 6.11 (22:30) -- -- -- -- --
29-11-2019 18.3 (13:50) 9.2 (00:00) 13.7 5.83 (12:20) 3.89 (11:10) -- -- -- -- --
28-11-2019 19.3 (13:10) 9.3 (00:00) 14.3 6.67 (16:40) 4.44 (16:40) -- -- -- -- --
27-11-2019 19 (14:30) 13.8 (00:00) 16.4 17.22 (18:20) 10.28 (11:50) -- -- -- -- --
26-11-2019 18.4 (13:20) 9 (00:00) 13.7 14.17 (22:20) 8.89 (22:20) -- -- -- -- --
25-11-2019 18 (16:20) 6.5 (00:00) 12.3 10.83 (17:40) 6.94 (17:20) -- -- -- -- --
24-11-2019 18.5 (12:40) 5.6 (00:00) 12 6.39 (12:20) 4.17 (12:20) -- -- -- -- --
23-11-2019 -- (--) -- (--) -- -- (--) -- (--) -- -- 0.4 0.2 0.2
22-11-2019 -- (--) -- (--) -- -- (--) -- (--) -- -- -- -- --
21-11-2019 17.4 (15:10) 12.9 (00:00) 15.1 15.56 (03:20) 10.28 (03:30) 0.8 0 0 0 0.8
20-11-2019 17.9 (14:20) 7.2 (00:00) 12.5 15.28 (16:10) 10.28 (16:10) 0.2 0 0 0.2 0
19-11-2019 18.2 (12:30) 6.5 (00:00) 12.4 8.61 (16:50) 6.11 (17:00) 0 0 0 0 0
18-11-2019 18.6 (16:40) 8.3 (00:00) 13.5 22.22 (02:10) 14.72 (02:30) 0.2 0 0.2 0 0
17-11-2019 16.9 (12:10) 4.2 (00:00) 10.5 21.11 (23:50) 13.33 (21:50) 0 0 0 0 0
16-11-2019 16.5 (13:40) 3.7 (00:00) 10.1 11.94 (16:20) 8.89 (16:30) 0 0 0 0 0
15-11-2019 16.5 (12:00) 5.5 (00:00) 11 22.22 (05:50) 13.89 (03:50) 0 0 0 0 0

Gráficas

Temp. máximas Temp. mínimas Temp. medias Precipitaciones Rachas de viento máximas Velocidades máximas media en intervalos de 10 minutos

Datos horarios

Fecha y hora oficial Temperatura (ºC) Velocidad del viento (km/h) Dirección del viento Racha (km/h) Dirección de racha Precipitación (mm) Presión (hPa) Tendencia (hPa) Humedad (%)
2019-12-14 23:00:00 10 8 Nordeste 10 Nordeste 0 1017.2 -0.1 87
2019-12-14 22:00:00 10.1 6 Nordeste 9 Nordeste 0 1017.3 0.1 86
2019-12-14 21:00:00 11.4 3 Noroeste 9 Oeste 0 1017.4 0.4 84
2019-12-14 20:00:00 13.4 5 Sudoeste 12 Oeste 0 1017.3 0.4 82
2019-12-14 19:00:00 14.7 9 Oeste 24 Oeste 0 1017.2 0.7 79
2019-12-14 18:00:00 16.4 19 Oeste 33 Oeste 0 1017 0.4 74
2019-12-14 17:00:00 17.1 24 Oeste 40 Oeste 0 1016.9 -0.2 71
2019-12-14 16:00:00 19 8 Oeste 20 Sudoeste 0 1016.5 -0.6 62
2019-12-14 15:00:00 18.1 5 Sudeste 14 Sudeste 0 1016.6 -1.2 65
2019-12-14 14:00:00 18.7 8 Este 20 Este 0 1017.1 -0.7 67
2019-12-14 13:00:00 17.9 14 Nordeste 21 Nordeste 0 1017.1 -0.4 71
2019-12-14 12:00:00 16.6 10 Este 15 Este 0 1017.8 1 84
2019-12-14 11:00:00 14 5 Nordeste 9 Norte 0 1017.8 1.7 90
2019-12-14 10:00:00 11.3 7 Norte 10 Norte 0 1017.5 1.6 91
2019-12-14 09:00:00 9.7 8 Norte 16 Norte 0 1016.8 1 90
2019-12-14 08:00:00 10.7 9 Nordeste 18 Nordeste 0 1016.1 0.1 89
2019-12-14 07:00:00 7.1 7 Nordeste 10 Este 0 1015.9 -0.3 88
2019-12-14 06:00:00 7.5 8 Norte 14 Nordeste 0 1015.8 -0.7 87
2019-12-14 05:00:00 7.3 6 Nordeste 9 Norte 0 1016 -0.6 86
2019-12-14 04:00:00 8 7 Norte 12 Norte 0 1016.2 -1 86
2019-12-14 03:00:00 9.1 4 Este 13 Nordeste 0 1016.5 -0.6 85
2019-12-14 02:00:00 9.9 6 Nordeste 14 Norte 0 1016.6 -0.1 83
2019-12-14 01:00:00 12.9 6 Oeste 13 Noroeste 0 1017.2 0.7 81
2019-12-14 00:00:00 12.6 5 Noroeste 19 Nordeste 0 1017.1 1 80
2019-12-13 23:00:00 14.8 14 Nordeste 29 Nordeste 0 1016.7 1.1 72
2019-12-13 22:00:00 15.6 19 Nordeste 33 Nordeste 0 1016.5 1.4 74
2019-12-13 21:00:00 15.6 17 Nordeste 30 Nordeste 0 1016.1 1.1 76
2019-12-13 20:00:00 14.7 16 Nordeste 24 Nordeste 0 1015.6 0.8 80
2019-12-13 19:00:00 14.5 11 Este 16 Nordeste 0 1015.1 0.7 74
2019-12-13 18:00:00 16.1 3 Norte 39 Oeste 0 1015 0.5 65
2019-12-13 17:00:00 17.6 24 Oeste 51 Oeste 0 1014.8 -0.1 63
2019-12-13 16:00:00 17.6 30 Oeste 72 Oeste 0 1014.4 -1.4 62
2019-12-13 15:00:00 17.8 42 Oeste 71 Oeste 0 1014.5 -1.1 61
2019-12-13 14:00:00 17.6 46 Oeste 71 Oeste 0 1014.9 -1.3 62
2019-12-13 13:00:00 17.3 49 Oeste 81 Oeste 0 1015.8 0.2 65
2019-12-13 12:00:00 17.3 60 Oeste 90 Oeste 0 1015.6 0.6 67
2019-12-13 11:00:00 16.9 49 Oeste 82 Oeste 0 1016.2 1 73
2019-12-13 10:00:00 16.5 51 Oeste 81 Oeste 0 1015.6 0.7 79
2019-12-13 09:00:00 16.3 43 Oeste 77 Oeste 0 1015 -0.4 79
2019-12-13 08:00:00 16.2 53 Oeste 84 Oeste 0.2 1015.2 -0.7 80
2019-12-13 07:00:00 16.3 47 Oeste 76 Oeste 0 1014.9 -1.4 79
2019-12-13 06:00:00 16 46 Oeste 76 Oeste 0 1015.4 -0.7 77
2019-12-13 05:00:00 16.1 44 Oeste 85 Oeste 0 1015.9 -0.5 75
2019-12-13 04:00:00 16.3 42 Oeste 74 Oeste 0 1016.3 0 72
2019-12-13 03:00:00 15.9 23 Oeste 43 Noroeste 0 1016.1 -1.2 67
2019-12-13 02:00:00 15.7 31 Oeste 60 Oeste 0 1016.4 -0.9 64
2019-12-13 01:00:00 15.8 39 Oeste 68 Oeste 0 1016.3 -1 68
2019-12-13 00:00:00 13.4 25 Oeste 49 Oeste 0 1017.3 -0.5 75
2019-12-12 23:00:00 12.6 12 Noroeste 29 Oeste 0 1017.3 -0.8 68
2019-12-12 22:00:00 12.3 5 Sudoeste 12 Noroeste 0 1017.3 -0.9 74
2019-12-12 21:00:00 11.8 6 Norte 15 Noroeste 0 1017.8 -0.6 69
2019-12-12 20:00:00 13.4 3 Oeste 29 Oeste 0 1018.1 0.2 64
2019-12-12 19:00:00 13.5 6 Oeste 11 Oeste 0 1018.2 -0.6 64
2019-12-12 18:00:00 15.9 3 Sudeste 16 Nordeste 0 1018.4 -0.6 58
2019-12-12 17:00:00 17.2 0 Calma 17 Sudoeste 0 1017.9 -1.9 47
2019-12-12 16:00:00 18.2 3 Sudeste 16 Nordeste 0 1018.8 -2.7 41
2019-12-12 15:00:00 18.2 8 Este 17 Sudeste 0 1019 -3 46
2019-12-12 14:00:00 17.5 4 Sudoeste 26 Sudoeste 0 1019.8 -2.2 51
2019-12-12 13:00:00 16.4 19 Sudoeste 29 Sudoeste 0 1021.5 -0.6 55
2019-12-12 12:00:00 16.5 5 Sur 10 Sur 0 1022 0.3 66
2019-12-12 11:00:00 14.3 0 Calma 13 Oeste 0 1022 0.3 75
2019-12-12 10:00:00 11.5 8 Oeste 14 Oeste 0 1022.1 0.2 82
2019-12-12 09:00:00 9.3 10 Norte 15 Norte 0 1021.7 -0.5 81
2019-12-12 08:00:00 9.9 11 Norte 17 Norte 0 1021.7 -0.8 82
2019-12-12 07:00:00 10 11 Norte 15 Norte 0 1021.9 -0.9 83
2019-12-12 06:00:00 9.6 11 Norte 15 Norte 0 1022.2 -0.6 84
2019-12-12 05:00:00 10 10 Nordeste 16 Nordeste 0 1022.5 -0.6 85
2019-12-12 04:00:00 10.7 11 Nordeste 19 Nordeste 0 1022.8 -0.2 86
2019-12-12 03:00:00 10.7 8 Nordeste 13 Norte 0 1022.8 0.7 87
2019-12-12 02:00:00 9.5 8 Norte 11 Norte 0 1023.1 1.6 87
2019-12-12 01:00:00 11.2 10 Nordeste 16 Nordeste 0 1023 2.2 87
2019-12-12 00:00:00 12.1 9 Noroeste 23 Noroeste 0 1022.1 1.9 87
2019-12-11 23:00:00 12.8 11 Noroeste 18 Oeste 0 1021.5 2 86
2019-12-11 22:00:00 12.8 8 Nordeste 18 Nordeste 0 1020.8 1.1 86
2019-12-11 21:00:00 13 12 Nordeste 19 Nordeste 0 1020.2 1.1 85
2019-12-11 20:00:00 13.7 13 Nordeste 17 Nordeste 0 1019.5 1.1 82
2019-12-11 19:00:00 15.7 8 Este 13 Este 0 1019.7 1 74
2019-12-11 18:00:00 18.3 3 Norte 12 Norte 0 1019.1 -0.2 63
2019-12-11 17:00:00 18.5 6 Sudeste 12 Sudeste 0 1018.4 -1.8 64
2019-12-11 16:00:00 18.8 2 Oeste 15 Sudoeste 0 1018.7 -2.4 61
2019-12-11 15:00:00 18.2 8 Oeste 19 Oeste 0 1019.3 -2.4 73
2019-12-11 14:00:00 17.8 10 Oeste 21 Sudoeste 0 1020.2 -1.9 75
2019-12-11 13:00:00 16.8 9 Sudoeste 15 Oeste 0 1021.1 -1 80
2019-12-11 12:00:00 16.2 6 Este 11 Este 0 1021.7 -0.5 89
2019-12-11 11:00:00 14 6 Nordeste 12 Este 0 1022.1 0.3 92
2019-12-11 10:00:00 12 8 Nordeste 59 Norte 0 1022.1 0.5 92
2019-12-11 09:00:00 8.7 11 Norte 16 Norte 0 1022.2 0.8 93
2019-12-11 08:00:00 8.2 10 Nordeste 13 Nordeste 0 1021.8 0.1 92
2019-12-11 07:00:00 8 10 Nordeste 11 Nordeste 0 1021.6 -0.3 92
2019-12-11 06:00:00 8.7 5 Norte 9 Norte 0 1021.4 -1 91
2019-12-11 05:00:00 8.4 7 Norte 12 Norte 0 1021.7 -1.3 91
2019-12-11 04:00:00 9.2 7 Norte 12 Noroeste 0 1021.9 -1.6 90
2019-12-11 03:00:00 9.9 10 Noroeste 13 Noroeste 0 1022.4 -1.4 90
2019-12-11 02:00:00 13.4 8 Noroeste 25 Oeste 0 1023 -0.9 89
2019-12-11 01:00:00 10.9 10 Oeste 15 Oeste 0 1023.5 -0.3 90
2019-12-11 00:00:00 10.5 7 Noroeste 13 Noroeste 0 1023.8 -0.3 89
2019-12-10 23:00:00 12 9 Noroeste 22 Oeste 0 1023.9 -0.2 88
2019-12-10 22:00:00 14.5 16 Oeste 23 Oeste 0 1023.8 -0.1 88
2019-12-10 21:00:00 14.7 16 Oeste 26 Oeste 0 1024.1 0.3 87
2019-12-10 20:00:00 14.6 18 Oeste 31 Oeste 0 1024.1 0.1 86
2019-12-10 19:00:00 15.1 19 Oeste 29 Oeste 0 1023.9 -0.1 83
2019-12-10 18:00:00 16.3 16 Oeste 26 Oeste 0 1023.8 -0.4 80
2019-12-10 17:00:00 17.3 14 Oeste 28 Oeste 0 1024 -1 80
2019-12-10 16:00:00 17.7 17 Oeste 30 Oeste 0 1024 -1.8 78
2019-12-10 15:00:00 17.7 18 Oeste 28 Oeste 0 1024.2 -2.4 73
2019-12-10 14:00:00 17.3 19 Oeste 25 Oeste 0.2 1025 -1.6 77
2019-12-10 13:00:00 17.6 8 Oeste 15 Sudoeste 0 1025.8 -0.8 84
2019-12-10 12:00:00 16.7 5 Oeste 11 Oeste 0 1026.6 0.1 90
2019-12-10 11:00:00 15.4 4 Oeste 10 Noroeste 0 1026.6 0.6 93
2019-12-10 10:00:00 11.6 7 Noroeste 11 Norte 0 1026.6 0.8 94
2019-12-10 09:00:00 7.4 9 Norte 11 Norte 0 1026.5 0.7 93
2019-12-10 08:00:00 7.2 6 Norte 8 Norte 0 1026 -0.2 93
2019-12-10 07:00:00 8.4 3 Norte 9 Norte 0.2 1025.8 -0.7 93
2019-12-10 06:00:00 9.6 7 Norte 11 Norte 0 1025.8 -0.6 92
2019-12-10 05:00:00 10.8 9 Nordeste 15 Este 0 1026.2 0 92
2019-12-10 04:00:00 12.7 11 Nordeste 15 Este 0 1026.5 0 92
2019-12-10 03:00:00 11 9 Nordeste 13 Nordeste 0 1026.4 0.2 91
2019-12-10 02:00:00 11.6 6 Norte 10 Nordeste 0 1026.2 -0.4 91
2019-12-10 01:00:00 12.3 5 Noroeste 11 Oeste 0 1026.5 -0.1 90
2019-12-10 00:00:00 12 11 Oeste 14 Oeste 0 1026.2 -0.1 90
2019-12-09 23:00:00 11.6 4 Nordeste 11 Noroeste 0 1026.6 0.5 89
2019-12-09 22:00:00 12.6 9 Noroeste 12 Noroeste 0 1026.6 0.8 88
2019-12-09 21:00:00 13 6 Noroeste 10 Norte 0 1026.3 0.9 87
2019-12-09 20:00:00 13.5 6 Norte 19 Oeste 0 1026.1 0.7 86
2019-12-09 19:00:00 16.6 11 Oeste 19 Oeste 0 1025.8 0.5 84
2019-12-09 18:00:00 17.5 10 Oeste 24 Oeste 0 1025.4 -0.2 78
2019-12-09 17:00:00 18.8 9 Oeste 19 Oeste 0 1025.4 -0.7 75
2019-12-09 16:00:00 19.2 13 Sudoeste 20 Sudoeste 0 1025.3 -1.7 71
2019-12-09 15:00:00 18.6 9 Sudoeste 18 Oeste 0 1025.6 -1.7 73
2019-12-09 14:00:00 18.6 8 Oeste 15 Sudoeste 0 1026.1 -0.5 74
2019-12-09 13:00:00 18.5 6 Sudoeste 15 Sudoeste 0 1027 0.7 74
2019-12-09 12:00:00 17.5 6 Sudoeste 13 Sur 0 1027.3 2.2 76
2019-12-09 11:00:00 15.3 2 Noroeste 8 Noroeste 0 1026.6 2.2 89
2019-12-09 10:00:00 12.4 3 Oeste 14 Norte 0 1026.3 2.2 92
2019-12-09 09:00:00 9 4 Norte 13 Norte 0 1025.1 1.4 91
2019-12-09 08:00:00 8.6 4 Nordeste 12 Noroeste 0 1024.4 0.6 90
2019-12-09 07:00:00 9.8 8 Noroeste 15 Noroeste 0 1024.1 0.7 91
2019-12-09 06:00:00 9.9 10 Norte 14 Noroeste 0 1023.7 -0.3 91
2019-12-09 05:00:00 10.1 8 Norte 15 Norte 0 1023.8 0.2 91
2019-12-09 04:00:00 10.1 9 Norte 13 Norte 0 1023.4 -0.7 90
2019-12-09 03:00:00 10.6 6 Noroeste 14 Norte 0 1024 0.1 90
2019-12-09 02:00:00 10.7 6 Nordeste 14 Norte 0 1023.6 -0.4 90
2019-12-09 01:00:00 11.1 6 Norte 9 Nordeste 0 1024.1 0 89
2019-12-09 00:00:00 11.7 4 Nordeste 11 Norte 0 1023.9 -0.3 88
2019-12-08 23:00:00 12.3 6 Norte 9 Norte 0 1024 -0.1 87
2019-12-08 22:00:00 13.6 4 Norte 15 Sudoeste 0 1024.1 0.4 86
2019-12-08 21:00:00 15.5 9 Oeste 21 Oeste 0 1024.2 0.7 85
2019-12-08 20:00:00 15.5 13 Oeste 31 Oeste 0 1024.1 0.6 84
2019-12-08 19:00:00 15.3 17 Oeste 35 Oeste 0 1023.7 0 83
2019-12-08 18:00:00 15.7 25 Oeste 38 Oeste 0 1023.5 -0.2 79
2019-12-08 17:00:00 16.5 26 Oeste 39 Oeste 0 1023.5 -0.9 75
2019-12-08 16:00:00 17 22 Oeste 36 Oeste 0 1023.7 -1.6 74
2019-12-08 15:00:00 17 18 Oeste 41 Oeste 0 1023.7 -2.1 71
2019-12-08 14:00:00 16.7 22 Oeste 35 Oeste 0 1024.4 -1.5 72
2019-12-08 13:00:00 16.6 20 Oeste 32 Oeste 0 1025.3 -0.1 72
2019-12-08 12:00:00 16.5 21 Oeste 31 Oeste 0 1025.8 0.9 75
2019-12-08 11:00:00 14.4 17 Oeste 30 Oeste 0 1025.9 1.5 89
2019-12-08 10:00:00 11 7 Noroeste 11 Noroeste 0 1025.4 1.5 91
2019-12-08 09:00:00 8.3 8 Noroeste 10 Noroeste 0 1024.9 0.9 90
2019-12-08 08:00:00 8.6 8 Noroeste 12 Noroeste 0 1024.4 0.3 90
2019-12-08 07:00:00 8.9 8 Noroeste 12 Noroeste 0 1023.9 -0.6 90
2019-12-08 06:00:00 9.3 9 Noroeste 12 Noroeste 0 1024 -0.7 90
2019-12-08 05:00:00 9.1 9 Norte 11 Noroeste 0 1024.1 -0.7 89
2019-12-08 04:00:00 10.2 8 Noroeste 10 Noroeste 0 1024.5 -0.5 89
2019-12-08 03:00:00 11.4 8 Noroeste 17 Oeste 0 1024.7 -0.5 89
2019-12-08 02:00:00 13.9 14 Oeste 21 Oeste 0 1024.8 -0.2 89
2019-12-08 01:00:00 12 9 Noroeste 15 Noroeste 0 1025 0.3 88
2019-12-08 00:00:00 13 9 Noroeste 12 Noroeste 0 1025.2 1 87
2019-12-07 23:00:00 12.4 5 Norte 11 Noroeste 0 1025 1.4 86
2019-12-07 22:00:00 12.4 8 Noroeste 12 Noroeste 0 1024.7 1.7 85
2019-12-07 21:00:00 12.6 9 Noroeste 12 Noroeste 0 1024.2 1.6 82
2019-12-07 20:00:00 13.4 9 Noroeste 12 Oeste 0 1023.6 1.4 79
2019-12-07 19:00:00 14.7 9 Oeste 15 Oeste 0 1023 1.1 77
2019-12-07 18:00:00 16.2 11 Oeste 22 Oeste 0 1022.6 0.8 73
2019-12-07 17:00:00 16.5 16 Oeste 23 Oeste 0 1022.2 0.3 72
2019-12-07 16:00:00 17.4 12 Oeste 21 Oeste 0 1021.9 -0.7 69
2019-12-07 15:00:00 18.1 8 Oeste 23 Oeste 0 1021.8 -1.3 67
2019-12-07 14:00:00 17.8 17 Oeste 27 Oeste 0 1021.9 -1 70
2019-12-07 13:00:00 17.7 15 Oeste 23 Oeste 0 1022.6 0.4 68
2019-12-07 12:00:00 18 6 Sudoeste 15 Sudoeste 0 1023.1 1.6 66
2019-12-07 11:00:00 17.1 5 Este 12 Este 0 1022.9 2.3 65
2019-12-07 10:00:00 15.2 6 Este 14 Este 0 1022.2 2.3 73
2019-12-07 09:00:00 14.4 9 Este 13 Nordeste 0 1021.5 1.9 72
2019-12-07 08:00:00 14.8 4 Este 16 Este 0 1020.6 0.9 66
2019-12-07 07:00:00 14.5 6 Nordeste 13 Nordeste 0 1019.9 -0.1 62
2019-12-07 06:00:00 15.3 9 Nordeste 23 Nordeste 0 1019.6 -0.5 58
2019-12-07 05:00:00 15.7 12 Nordeste 17 Nordeste 0 1019.7 -0.4 56
2019-12-07 04:00:00 15.9 12 Nordeste 23 Este 0 1020 -0.3 56
2019-12-07 03:00:00 16.1 15 Nordeste 31 Nordeste 0 1020.1 -0.5 54
2019-12-07 02:00:00 16.4 20 Nordeste 36 Nordeste 0 1020.1 -0.2 52
2019-12-07 01:00:00 16 21 Nordeste 34 Nordeste 0 1020.3 0.2 56
2019-12-07 00:00:00 15.8 19 Nordeste 43 Este 0 1020.6 0.5 60
2019-12-06 23:00:00 16 26 Este 42 Este 0 1020.3 0.6 71
2019-12-06 22:00:00 15.9 23 Este 48 Este 0 1020.1 0.8 72
2019-12-06 21:00:00 15.9 30 Este 54 Este 0 1020.1 1.6 73
2019-12-06 20:00:00 16 31 Este 53 Este 0 1019.7 1.6 73
2019-12-06 19:00:00 16.3 27 Este 54 Este 0 1019.3 1.6 72
2019-12-06 18:00:00 16.6 28 Este 53 Este 0 1018.5 0.6 70
2019-12-06 17:00:00 17.2 32 Este 61 Este 0 1018.1 -0.4 68
2019-12-06 16:00:00 18 29 Este 54 Este 0 1017.7 -1.2 64
2019-12-06 15:00:00 18.7 32 Este 59 Este 0 1017.9 -1.8 61
2019-12-06 14:00:00 19.2 33 Este 54 Este 0 1018.5 -0.9 58
2019-12-06 13:00:00 19.8 31 Este 59 Este 0 1018.9 -0.3 48
2019-12-06 12:00:00 18.1 31 Este 53 Nordeste 0 1019.7 1.2 53
2019-12-06 11:00:00 16.9 30 Este 50 Este 0 1019.4 1.3 57
2019-12-06 10:00:00 16.8 27 Nordeste 52 Nordeste 0 1019.2 1.8 57
2019-12-06 09:00:00 15.8 32 Este 54 Nordeste 0 1018.5 1.5 60
2019-12-06 08:00:00 15.9 30 Este 52 Este 0 1018.1 1.1 61
2019-12-06 07:00:00 15.7 26 Este 45 Este 0 1017.4 0.4 62
2019-12-06 06:00:00 14.9 24 Nordeste 39 Nordeste 0 1017 0.6 60
2019-12-06 05:00:00 15.4 24 Nordeste 43 Nordeste 0 1017 0.4 59
2019-12-06 04:00:00 15.8 25 Nordeste 47 Nordeste 0 1017 0 58
2019-12-06 03:00:00 15.7 28 Nordeste 46 Nordeste 0 1016.4 -0.7 59
2019-12-06 02:00:00 16 30 Este 52 Este 0 1016.6 -0.3 58
2019-12-06 01:00:00 15.8 29 Este 45 Este 0 1017 0.2 62
2019-12-06 00:00:00 15.7 26 Este 45 Este 0 1017.1 0.5 62
2019-12-05 23:00:00 15.3 24 Este 45 Este 0 1016.9 1.1 67
2019-12-05 22:00:00 15.2 29 Este 55 Este 0 1016.8 1.8 73
2019-12-05 21:00:00 15.5 30 Este 51 Este 0 1016.6 1.9 71
2019-12-05 20:00:00 15.5 32 Este 52 Este 0 1015.8 1.3 70
2019-12-05 19:00:00 15.6 29 Este 48 Este 0 1015 0.9 71
2019-12-05 18:00:00 15.8 28 Este 45 Este 0 1014.7 0.6 68
2019-12-05 17:00:00 16.3 23 Este 44 Este 0 1014.5 0 68
2019-12-05 16:00:00 17.7 24 Este 44 Este 0 1014.1 -0.9 63
2019-12-05 15:00:00 17.6 28 Este 42 Este 0 1014.1 -1.3 60
2019-12-05 14:00:00 17.9 27 Este 44 Este 0 1014.5 -0.3 58
2019-12-05 13:00:00 16.5 23 Este 39 Este 1 1015 1.1 63
2019-12-05 12:00:00 17.1 21 Este 34 Este -- 1015.4 2.6 60
2019-12-05 11:00:00 14.8 13 Este 23 Este -- 1014.8 2.8 81
2019-12-05 10:00:00 12.3 8 Nordeste 12 Nordeste -- 1013.9 2.6 88
2019-12-05 09:00:00 11.2 9 Nordeste 11 Norte -- 1012.8 2 89
2019-12-05 08:00:00 10.5 9 Norte 12 Norte -- 1012 1.4 89
2019-12-05 07:00:00 10.7 6 Norte 9 Norte -- 1011.3 0.6 88
2019-12-05 06:00:00 10.8 5 Norte 10 Nordeste -- 1010.8 0.7 88
2019-12-05 05:00:00 11.1 4 Norte 8 Nordeste -- 1010.6 0.7 87
2019-12-05 04:00:00 11.2 7 Nordeste 9 Noroeste -- 1010.7 1.3 86
2019-12-05 03:00:00 11.3 6 Noroeste 12 Norte -- 1010.1 0.9 85
2019-12-05 02:00:00 10.7 11 Noroeste 15 Oeste -- 1009.9 0.7 82
2019-12-05 01:00:00 12.8 7 Noroeste 18 Sudoeste -- 1009.4 0.7 78
2019-12-05 00:00:00 14.7 9 Oeste 27 Oeste -- 1009.2 1.1 77
2019-12-04 23:00:00 15.1 14 Oeste 40 Oeste -- 1009.2 1.7 74
2019-12-04 22:00:00 14.8 20 Oeste 38 Oeste -- 1008.7 1.8 76
2019-12-04 21:00:00 14.7 21 Oeste 47 Oeste -- 1008.1 2 75
2019-12-04 20:00:00 15.2 30 Oeste 58 Oeste -- 1007.5 2.3 73
2019-12-04 19:00:00 15.1 38 Oeste 66 Oeste -- 1006.9 2 70
2019-12-04 18:00:00 15.9 37 Oeste 58 Oeste -- 1006.1 1.2 74
2019-12-04 17:00:00 16.3 32 Oeste 62 Oeste -- 1005.2 -0.2 72
2019-12-04 16:00:00 16.8 30 Oeste 67 Oeste -- 1004.9 -0.9 71
2019-12-04 15:00:00 17 31 Oeste 52 Oeste -- 1004.9 -1.7 70
2019-12-04 14:00:00 17.9 31 Oeste 53 Oeste -- 1005.4 -1.5 66
2019-12-04 13:00:00 17.5 12 Sudoeste 21 Sudoeste -- 1005.8 -- 65
2019-12-04 12:00:00 16.1 8 Oeste 14 Oeste -- 1006.6 -- 69
2019-12-04 11:00:00 13.8 6 Oeste -- -- -- 1006.9 -- 89
2019-12-04 10:00:00 -- -- -- -- -- -- -- -- --
2019-12-04 09:00:00 -- -- -- -- -- -- -- -- --
2019-12-04 08:00:00 -- -- -- -- -- -- -- -- --
2019-12-04 07:00:00 -- -- -- -- -- -- -- -- --
2019-12-04 06:00:00 -- -- -- -- -- -- -- -- --
2019-12-04 05:00:00 -- -- -- -- -- -- -- -- --
2019-12-04 04:00:00 -- -- -- -- -- -- -- -- --
2019-12-04 03:00:00 -- -- -- -- -- -- -- -- --
2019-12-04 02:00:00 -- -- -- -- -- -- -- -- --
2019-12-04 01:00:00 -- -- -- -- -- -- -- -- --
2019-12-04 00:00:00 -- -- -- -- -- -- -- -- --
2019-12-03 23:00:00 -- -- -- -- -- -- -- -- --
2019-12-03 22:00:00 -- -- -- -- -- -- -- -- --
2019-12-03 21:00:00 -- -- -- -- -- -- -- -- --
2019-12-03 20:00:00 -- -- -- -- -- -- -- -- --
2019-12-03 19:00:00 14.5 22 Este -- -- -- 1007.9 -- 64
2019-12-03 18:00:00 -- -- -- -- -- -- -- -- --
2019-12-03 17:00:00 -- -- -- -- -- -- -- -- --
2019-12-03 16:00:00 -- -- -- -- -- -- -- -- --
2019-12-03 15:00:00 -- -- -- -- -- -- -- -- --
2019-12-03 14:00:00 -- -- -- -- -- -- -- -- --
2019-12-03 13:00:00 -- -- -- -- -- -- -- -- --
2019-12-03 12:00:00 -- -- -- -- -- -- -- -- --
2019-12-03 11:00:00 13.5 -- -- -- -- -- 1008.5 0.4 80
2019-12-03 10:00:00 -- -- -- -- -- -- -- -- --
2019-12-03 09:00:00 12.8 27 Nordeste -- -- -- 1008.6 1.4 81
2019-12-03 08:00:00 13.2 26 Nordeste 44 Nordeste -- 1008.1 -0.2 78
2019-12-03 07:00:00 14.7 26 Nordeste 50 Nordeste -- 1007.6 -1.1 67
2019-12-03 06:00:00 14.5 30 Nordeste 53 Nordeste -- 1007.2 -2 68
2019-12-03 05:00:00 14.7 24 Nordeste 41 Nordeste -- 1008.3 -1.7 75
2019-12-03 04:00:00 13.9 21 Nordeste 40 Nordeste -- 1008.7 -1.8 82
2019-12-03 03:00:00 13.3 23 Nordeste 50 Este -- 1009.2 -2.1 88
2019-12-03 02:00:00 13.9 18 Nordeste 43 Este -- 1010 -1.8 87
2019-12-03 01:00:00 14.7 30 Nordeste 46 Este -- 1010.5 -1.3 80
2019-12-03 00:00:00 14.2 12 Este 23 Este -- 1011.3 -0.1 85
2019-12-02 23:00:00 14.1 15 Este 37 Este -- 1011.8 0.9 83
2019-12-02 22:00:00 14.5 23 Este 38 Nordeste -- 1011.8 1.4 81
2019-12-02 21:00:00 13.7 17 Este 32 Nordeste -- 1011.4 1.2 83
2019-12-02 20:00:00 14.1 21 Este 38 Este -- 1010.9 1 80
2019-12-02 19:00:00 14.9 21 Nordeste 53 Este -- 1010.4 0.6 77
2019-12-02 18:00:00 15.5 27 Este 48 Este -- 1010.2 0.6 74
2019-12-02 17:00:00 16.3 23 Este 46 Este -- 1009.9 -0.4 64
2019-12-02 16:00:00 16.3 26 Este 42 Sudeste -- 1009.8 -0.9 70
2019-12-02 15:00:00 17.2 16 Este 32 Este -- 1009.6 -1.5 70
2019-12-02 14:00:00 17.3 20 Este 32 Este -- 1010.3 -0.6 70
2019-12-02 13:00:00 17.4 20 Este 34 Este -- 1010.7 0.6 67
2019-12-02 12:00:00 15.2 18 Este 29 Este -- 1011.1 1.4 77
2019-12-02 11:00:00 13.8 17 Este -- -- -- 1010.9 1.6 87
2019-12-02 10:00:00 11.8 8 Nordeste 10 Nordeste -- 1010.1 1.3 90
2019-12-02 09:00:00 10.7 8 Nordeste 13 Nordeste -- 1009.7 0.8 89
2019-12-02 08:00:00 9.8 8 Nordeste 9 Nordeste -- 1009.3 0 88
2019-12-02 07:00:00 10.4 5 Noroeste 10 Noroeste -- 1008.8 -0.6 88
2019-12-02 06:00:00 12 6 Noroeste 12 Oeste -- 1008.9 -0.8 87
2019-12-02 05:00:00 12.5 9 Oeste 13 Oeste -- 1009.3 -0.6 86
2019-12-02 04:00:00 13.3 6 Noroeste 14 Noroeste -- 1009.4 -0.8 85
2019-12-02 03:00:00 14 10 Oeste 21 Oeste -- 1009.7 -0.6 85
2019-12-02 02:00:00 14.5 11 Noroeste 28 Oeste -- 1009.9 -0.6 83
2019-12-02 01:00:00 14.8 11 Oeste 40 Oeste -- 1010.2 -0.3 81
2019-12-02 00:00:00 14.8 20 Oeste 40 Oeste -- 1010.3 -0.2 83
2019-12-01 23:00:00 15.2 26 Oeste 46 Oeste -- 1010.5 0.2 78
2019-12-01 22:00:00 15.3 19 Oeste 45 Oeste -- 1010.5 0.3 79
2019-12-01 21:00:00 15.4 28 Oeste 55 Oeste -- 1010.5 0.4 78
2019-12-01 20:00:00 15.2 31 Oeste 51 Oeste -- 1010.3 -0.1 78
2019-12-01 19:00:00 15.6 27 Oeste 43 Oeste -- 1010.2 -0.5 76
2019-12-01 18:00:00 15.7 27 Oeste 53 Oeste -- 1010.1 -0.7 77
2019-12-01 17:00:00 16.2 31 Oeste 58 Oeste -- 1010.4 -1 77
2019-12-01 16:00:00 16.1 29 Oeste 62 Oeste -- 1010.7 -1.7 74
2019-12-01 15:00:00 16.5 26 Oeste 56 Oeste -- 1010.8 -2.2 69
2019-12-01 14:00:00 16.8 36 Oeste 57 Oeste -- 1011.4 -1.7 69
2019-12-01 13:00:00 16.5 35 Oeste 57 Oeste -- 1012.4 -0.6 73
2019-12-01 12:00:00 17.5 32 Oeste 49 Oeste -- 1013 0.2 71
2019-12-01 11:00:00 17.4 30 Oeste 47 Oeste -- 1013.1 0.4 72
2019-12-01 10:00:00 16.4 24 Oeste 41 Oeste -- 1013 0.3 78
2019-12-01 09:00:00 15.4 19 Oeste 31 Oeste -- 1012.8 0.1 85
2019-12-01 08:00:00 15 9 Noroeste 35 Oeste -- 1012.7 -0.3 83
2019-12-01 07:00:00 15.4 26 Oeste 41 Oeste -- 1012.7 -1.1 82
2019-12-01 06:00:00 15.6 23 Oeste 42 Oeste -- 1012.7 -1.2 84
2019-12-01 05:00:00 15.4 22 Oeste 48 Oeste -- 1013 -1.7 86
2019-12-01 04:00:00 15.6 22 Oeste 40 Oeste -- 1013.8 -1.5 87
2019-12-01 03:00:00 15.1 16 Oeste 35 Oeste -- 1013.9 -1.9 87
2019-12-01 02:00:00 15.5 20 Oeste 41 Oeste -- 1014.7 -1.6 85
2019-12-01 01:00:00 15.4 21 Oeste 38 Oeste -- 1015.3 -1.6 85
2019-12-01 00:00:00 15.4 21 Oeste 38 Oeste -- 1015.8 -1.5 86
2019-11-30 23:00:00 15.3 17 Oeste 38 Oeste -- 1016.3 -1.1 86
2019-11-30 22:00:00 15 17 Oeste 32 Oeste -- 1016.9 -0.3 88
2019-11-30 21:00:00 14.6 15 Oeste 29 Oeste -- 1017.3 -0.2 87
2019-11-30 20:00:00 15.2 14 Oeste 28 Oeste -- 1017.4 -0.5 85
2019-11-30 19:00:00 15.8 17 Oeste 26 Oeste -- 1017.2 -1.4 81
2019-11-30 18:00:00 16.5 14 Oeste 26 Oeste -- 1017.5 -1.6 76
2019-11-30 17:00:00 18.2 13 Oeste 26 Sudoeste -- 1017.9 -2.1 74
2019-11-30 16:00:00 18.5 12 Oeste 23 Oeste -- 1018.6 -2.5 72
2019-11-30 15:00:00 18.5 9 Oeste 18 Oeste -- 1019.1 -2.9 73
2019-11-30 14:00:00 17.7 9 Sudoeste 14 Sudoeste -- 1020 -2.1 77
2019-11-30 13:00:00 17.4 6 Sudoeste 11 Sur -- 1021.1 -0.7 78
2019-11-30 12:00:00 16.7 5 Sudeste 10 Sudeste -- 1022 0.6 89
2019-11-30 11:00:00 15.8 2 Norte 7 Nordeste -- 1022.1 1.2 92
2019-11-30 10:00:00 13.3 4 Noroeste 57 Sudeste -- 1021.8 1.3 93
2019-11-30 09:00:00 9.7 7 Norte 9 Norte -- 1021.4 0.9 93
2019-11-30 08:00:00 9.8 7 Norte 8 Norte -- 1020.9 0.3 92
2019-11-30 07:00:00 10.2 8 Norte 9 Norte -- 1020.5 -0.2 92
2019-11-30 06:00:00 10.2 7 Norte 10 Norte -- 1020.5 -0.3 92
2019-11-30 05:00:00 9.9 8 Norte 10 Norte -- 1020.6 -0.3 91
2019-11-30 04:00:00 9.3 7 Norte 9 Norte -- 1020.7 -0.4 91
2019-11-30 03:00:00 10.2 6 Norte 10 Norte -- 1020.8 -0.4 91
2019-11-30 02:00:00 10 5 Nordeste 8 Norte -- 1020.9 -0.2 90
2019-11-30 01:00:00 10.1 4 Nordeste 7 Nordeste -- 1021.1 0 90
2019-11-30 00:00:00 10.1 6 Norte 8 Norte -- 1021.2 0.2 89
2019-11-29 23:00:00 10.6 5 Norte 8 Norte -- 1021.1 0.4 88
2019-11-29 22:00:00 11 7 Norte 8 Norte -- 1021.1 0.8 87
2019-11-29 21:00:00 11.9 5 Norte 8 Norte -- 1021 1 84
2019-11-29 20:00:00 13.2 4 Noroeste 8 Norte -- 1020.7 1.2 82
2019-11-29 19:00:00 14.7 3 Noroeste -- -- -- 1020.3 1 78
2019-11-29 18:00:00 16.9 4 Oeste 9 Sudoeste -- 1020 0.2 76
2019-11-29 17:00:00 17.5 6 Sur 10 Sur -- 1019.5 -0.9 75
2019-11-29 16:00:00 17.7 5 Sur 12 Sur -- 1019.3 -1.6 74
2019-11-29 15:00:00 18 6 Sur 13 Sur -- 1019.8 -1.3 72
2019-11-29 14:00:00 18.1 6 Sudeste 17 Sudeste -- 1020.4 -0.5 73
2019-11-29 13:00:00 17.9 10 Este 21 Este -- 1020.9 0.6 74
2019-11-29 12:00:00 17.1 12 Este 21 Este -- 1021.1 1.3 86
2019-11-29 11:00:00 15.1 12 Este 19 Este -- 1020.9 1.7 92
2019-11-29 10:00:00 13.4 8 Nordeste 12 Nordeste -- 1020.3 1.5 93
2019-11-29 09:00:00 9.7 9 Nordeste 12 Nordeste -- 1019.8 1.3 93
2019-11-29 08:00:00 10 9 Nordeste 13 Nordeste -- 1019.2 0.8 93
2019-11-29 07:00:00 9.2 9 Norte 12 Norte -- 1018.8 0.2 92
2019-11-29 06:00:00 11 8 Nordeste 11 Nordeste -- 1018.5 0.2 92
2019-11-29 05:00:00 10.1 6 Nordeste 12 Nordeste -- 1018.4 0.1 92
2019-11-29 04:00:00 9.8 8 Nordeste 12 Nordeste -- 1018.6 0.2 91
2019-11-29 03:00:00 9.8 8 Nordeste 10 Norte -- 1018.3 0 91
2019-11-29 02:00:00 9.7 8 Norte 11 Norte -- 1018.3 0.1 89
2019-11-29 01:00:00 10.9 5 Nordeste 9 Norte -- 1018.4 0.5 89
2019-11-29 00:00:00 10.8 6 Nordeste 12 Norte -- 1018.3 0.7 89
2019-11-28 23:00:00 10 6 Norte 8 Nordeste -- 1018.2 0.8 87
2019-11-28 22:00:00 11.2 3 Oeste 11 Oeste -- 1017.9 0.9 86
2019-11-28 21:00:00 12.1 7 Noroeste 9 Oeste -- 1017.6 1 85
2019-11-28 20:00:00 13.8 5 Noroeste 17 Oeste -- 1017.4 0.7 84
2019-11-28 19:00:00 14.8 10 Oeste 17 Oeste -- 1017 0.3 83
2019-11-28 18:00:00 16.6 9 Oeste 22 Oeste -- 1016.6 -0.5 79
2019-11-28 17:00:00 18.3 14 Oeste 24 Oeste -- 1016.7 -1 62
2019-11-28 16:00:00 17.8 12 Oeste 22 Oeste -- 1016.7 -1.7 73
2019-11-28 15:00:00 18.2 11 Sudoeste 21 Sudoeste -- 1017.1 -1.9 74
2019-11-28 14:00:00 18.2 10 Oeste 19 Sudoeste -- 1017.7 -1.2 73
2019-11-28 13:00:00 19.1 6 Este 13 Este -- 1018.4 0.2 66
2019-11-28 12:00:00 17.6 8 Este 15 Este -- 1019 1.6 77
2019-11-28 11:00:00 16.2 9 Este 16 Este -- 1018.9 2.3 89
2019-11-28 10:00:00 13.1 11 Nordeste 17 Nordeste -- 1018.2 2.4 92
2019-11-28 09:00:00 10.4 10 Nordeste 13 Nordeste -- 1017.4 1.9 92
2019-11-28 08:00:00 9.9 11 Nordeste 13 Nordeste -- 1016.6 1 91
2019-11-28 07:00:00 10.1 8 Nordeste 11 Norte -- 1015.8 0.3 91
2019-11-28 06:00:00 9.7 6 Norte 10 Norte -- 1015.5 0.7 91
2019-11-28 05:00:00 10.3 7 Norte 10 Noroeste -- 1015.6 0.6 91
2019-11-28 04:00:00 11.6 6 Norte 14 Nordeste -- 1015.5 0.4 89
2019-11-28 03:00:00 11 6 Nordeste 14 Oeste -- 1014.8 -0.3 88
2019-11-28 02:00:00 12 6 Norte 12 Norte -- 1015 0.3 86
2019-11-28 01:00:00 12.6 5 Nordeste 15 Norte -- 1015.1 1 84
2019-11-28 00:00:00 13.8 5 Nordeste 27 Oeste -- 1015.1 1.5 81
2019-11-27 23:00:00 14.8 15 Noroeste 34 Oeste -- 1014.7 1.9 83
2019-11-27 22:00:00 15.8 27 Oeste 49 Oeste -- 1014.1 1.7 82
2019-11-27 21:00:00 15.9 24 Oeste 50 Oeste -- 1013.6 1.7 81
2019-11-27 20:00:00 16.3 37 Oeste 54 Oeste -- 1012.8 0.8 82
2019-11-27 19:00:00 16.3 27 Oeste 62 Oeste -- 1012.4 0.7 82
2019-11-27 18:00:00 16.7 22 Oeste 42 Oeste -- 1011.9 -0.2 80
2019-11-27 17:00:00 17.7 34 Oeste 57 Oeste -- 1012 -0.8 75
2019-11-27 16:00:00 18.3 27 Oeste 54 Oeste -- 1011.7 -1.5 72
2019-11-27 15:00:00 18.4 26 Oeste 49 Oeste -- 1012.1 -1.9 70
2019-11-27 14:00:00 18.5 28 Oeste 53 Oeste -- 1012.8 -0.8 69
2019-11-27 06:00:00 15.2 13 Noroeste 42 Oeste -- 1011.6 -0.2 87
2019-11-27 05:00:00 15.4 27 Oeste 46 Noroeste -- 1011.2 -0.8 87
2019-11-27 04:00:00 15 19 Oeste 41 Oeste -- 1011.7 -0.8 88
2019-11-27 03:00:00 15.2 19 Oeste 43 Oeste -- 1011.8 -0.7 87
2019-11-27 02:00:00 15.4 19 Oeste 41 Oeste -- 1012 -0.7 86
2019-11-27 01:00:00 15.6 26 Oeste 44 Noroeste -- 1012.5 -0.4 86
2019-11-27 00:00:00 15.6 27 Oeste 47 Oeste -- 1012.5 -0.2 86
2019-11-26 23:00:00 16 25 Oeste 51 Oeste -- 1012.7 0.2 86
2019-11-26 22:00:00 15.9 29 Oeste 46 Oeste -- 1012.9 0.4 88
2019-11-26 21:00:00 16 31 Oeste 46 Oeste -- 1012.7 0.1 88
2019-11-26 20:00:00 16.1 23 Oeste 40 Oeste -- 1012.5 -0.2 87
2019-11-26 19:00:00 16.1 12 Oeste 21 Oeste -- 1012.5 -0.2 85
2019-11-26 18:00:00 16.6 5 Oeste 14 Sudoeste -- 1012.6 -0.8 82
2019-11-26 17:00:00 17.6 6 Sudoeste 18 Oeste -- 1012.7 -1.3 77
2019-11-26 16:00:00 17.3 10 Oeste 19 Sudoeste -- 1012.7 -2.1 79
2019-11-26 15:00:00 17.6 10 Sudoeste 18 Sudoeste -- 1013.4 -2 78
2019-11-26 14:00:00 18.3 10 Oeste 20 Sudoeste -- 1014 -1.5 76
2019-11-26 13:00:00 18 7 Oeste 17 Sudoeste -- 1014.8 -0.5 79
2019-11-26 12:00:00 16.4 8 Sudoeste 14 Sudoeste -- 1015.4 0.2 83
2019-11-26 11:00:00 15.6 4 Oeste 14 Sudoeste -- 1015.5 0.7 90
2019-11-26 10:00:00 14.2 7 Norte 10 Nordeste -- 1015.3 0.8 92
2019-11-26 09:00:00 9.8 5 Noroeste 9 Norte -- 1015.2 0.8 92
2019-11-26 08:00:00 9 8 Nordeste 10 Norte -- 1014.8 0 92
2019-11-26 07:00:00 10.4 3 Oeste 12 Norte -- 1014.5 -0.2 92
2019-11-26 06:00:00 10.1 8 Norte 17 Noroeste -- 1014.4 -1 91
2019-11-26 05:00:00 10.7 3 Oeste 9 Norte -- 1014.8 -0.3 91
2019-11-26 04:00:00 10.9 9 Norte 12 Norte -- 1014.7 -1 91
2019-11-26 03:00:00 10.8 10 Noroeste 14 Oeste -- 1015.4 -0.1 91
2019-11-26 02:00:00 10.6 5 Norte 10 Noroeste -- 1015.1 -0.1 90
2019-11-26 01:00:00 11.9 5 Oeste 19 Oeste -- 1015.7 0.4 90
2019-11-26 00:00:00 12.7 7 Nordeste 22 Nordeste -- 1015.5 1 89
2019-11-25 23:00:00 13.4 14 Nordeste 19 Nordeste -- 1015.2 1.2 89
2019-11-25 22:00:00 12.6 9 Noroeste 18 Oeste -- 1015.3 1.1 87
2019-11-25 21:00:00 12.6 8 Nordeste 12 Nordeste -- 1014.5 0.5 85
2019-11-25 20:00:00 13.1 7 Norte 12 Oeste -- 1014 -0.2 82
2019-11-25 19:00:00 15.2 9 Oeste 30 Oeste -- 1014.2 -0.2 80
2019-11-25 18:00:00 16.7 22 Oeste 39 Oeste -- 1014 -1.1 77
2019-11-25 17:00:00 17.6 22 Oeste 35 Oeste -- 1014.2 -1.4 75
2019-11-25 16:00:00 17 13 Oeste 24 Oeste -- 1014.4 -2.2 73
2019-11-25 15:00:00 17.1 9 Sudoeste 17 Sudoeste -- 1015.1 -2.1 74
2019-11-25 14:00:00 17.4 8 Oeste 19 Sudoeste -- 1015.6 -1.9 69
2019-11-25 13:00:00 16.5 11 Sudoeste 17 Sudoeste -- 1016.6 -0.2 68
2019-11-25 12:00:00 16.9 10 Sudoeste 19 Oeste -- 1017.2 0.9 64
2019-11-25 11:00:00 14.9 5 Oeste 12 Noroeste -- 1017.5 1.7 77
2019-11-25 10:00:00 11.4 7 Oeste 14 Noroeste -- 1016.8 1.4 86
2019-11-25 09:00:00 9.8 8 Nordeste 16 Nordeste -- 1016.3 1.3 86
2019-11-25 08:00:00 9.6 13 Nordeste 17 Nordeste -- 1015.8 0.8 86
2019-11-25 07:00:00 8.4 11 Nordeste 18 Nordeste -- 1015.4 0 86
2019-11-25 06:00:00 7.7 12 Nordeste 15 Nordeste -- 1015 -0.1 86
2019-11-25 05:00:00 6.7 8 Nordeste 10 Nordeste -- 1015 -0.3 84
2019-11-25 04:00:00 6.7 2 Noroeste 10 Sudoeste -- 1015.4 0.1 82
2019-11-25 03:00:00 8 6 Sudoeste 18 Norte -- 1015.1 -0.3 84
2019-11-25 02:00:00 6.7 12 Norte 15 Norte -- 1015.3 0 83
2019-11-25 01:00:00 6.9 5 Noroeste 11 Noroeste -- 1015.3 -0.1 81
2019-11-25 00:00:00 7.4 10 Noroeste 14 Oeste -- 1015.4 0.1 82
2019-11-24 23:00:00 7.3 5 Nordeste 8 Nordeste -- 1015.3 0.2 82
2019-11-24 22:00:00 8.8 5 Este 10 Norte -- 1015.4 0.7 82
2019-11-24 21:00:00 9.1 9 Norte 11 Norte -- 1015.3 0.8 81
2019-11-24 20:00:00 11.2 4 Norte 10 Oeste -- 1015.1 0.7 77
2019-11-24 19:00:00 14.2 9 Oeste 18 Oeste -- 1014.7 0.5 72
2019-11-24 18:00:00 16 5 Oeste 14 Oeste -- 1014.5 0.2 66
2019-11-24 17:00:00 17.7 7 Oeste 19 Oeste -- 1014.4 0 62
2019-11-24 16:00:00 17.4 12 Oeste 23 Oeste -- 1014.2 -0.5 57
2019-11-24 15:00:00 17.3 10 Oeste 23 Oeste 0 1014.3 -0.6 56
2019-11-24 14:00:00 16.4 5 Sudoeste 16 Sudeste 0.2 1014.4 -0.3 64
2019-11-24 13:00:00 18 12 Este 23 Este 0 1014.7 0.4 53
2019-11-24 12:00:00 17.8 14 Nordeste 53 Este 0 1014.9 0.9 48
2019-11-24 11:00:00 15.8 6 Este 12 Este 0 1014.7 1.6 62
2019-11-24 10:00:00 12.8 7 Este 12 Este 0 1014.3 2.2 74
2019-11-24 09:00:00 7.6 5 Norte 14 Norte 0 1014 2.2 81
2019-11-24 08:00:00 6.6 12 Norte 16 Norte 0 1013.1 1.2 82
2019-11-24 07:00:00 6.6 8 Norte 17 Norte 0 1012.1 0.4 84
2019-11-24 06:00:00 6.2 11 Noroeste 15 Noroeste 0 1011.8 0.4 82
2019-11-24 05:00:00 5.9 10 Noroeste 14 Noroeste 0 1011.9 0.3 80
2019-11-24 04:00:00 7.6 5 Sudeste 13 Nordeste 0 1011.7 0.1 79
2019-11-24 03:00:00 7.1 10 Norte 14 Norte 0.2 1011.4 0.1 75
2019-11-24 02:00:00 9.2 6 Oeste 10 Noroeste 0 1011.6 1.2 75
2019-11-24 01:00:00 9.2 3 Norte 21 Sudoeste 0 1011.6 1.4 70
2019-11-24 00:00:00 9.9 9 Nordeste 22 Noroeste 0 1011.3 1.5 73
2019-11-23 23:00:00 10.9 9 Norte 18 Oeste 0 1010.4 1.7 68
2019-11-23 22:00:00 14.5 11 Oeste 33 Oeste 0 1010.2 3.2 63
2019-11-23 21:00:00 15.6 21 Oeste 54 Oeste 0 1009.8 4 64
2019-11-23 20:00:00 15.7 28 Oeste 56 Oeste 0 1008.7 4 63
2019-11-23 19:00:00 16 33 Oeste 63 Oeste 0.2 1007 3.3 62
2019-11-23 18:00:00 16.4 40 Oeste 70 Oeste 0 1005.8 1.9 55
2019-11-23 17:00:00 16.8 46 Oeste 75 Oeste 0 1004.7 1 61
2019-11-23 16:00:00 17.3 51 Oeste 82 Oeste 0 1003.7 0.2 54
2019-11-23 15:00:00 17.6 37 Oeste 72 Sudoeste 0.2 1003.9 0.8 55
2019-11-23 14:00:00 17.6 33 Oeste 68 Oeste 0 1003.7 1.7 52
2019-11-23 13:00:00 17.1 48 Oeste 85 Oeste 0 1003.5 1.9 54
2019-11-23 12:00:00 17.1 55 Oeste 90 Oeste 0 1003.1 2.4 50
2019-11-23 11:00:00 17 47 Oeste 80 Oeste 0 1002 3.4 51
2019-11-23 10:00:00 16 51 Oeste 89 Oeste 0.2 1001.6 4 58
2019-11-23 09:00:00 15.8 45 Oeste 79 Oeste 0 1000.7 3.1 60
2019-11-23 08:00:00 16.4 48 Oeste 82 Oeste 0 998.6 2.1 60
2019-11-23 07:00:00 16.7 56 Oeste 90 Oeste 0.2 997.6 0.9 54
2019-11-23 06:00:00 16.6 50 Oeste 76 Oeste 0 997.6 0.8 58
2019-11-23 05:00:00 16 55 Oeste 85 Oeste 0.2 996.5 -0.4 72
2019-11-23 04:00:00 16.3 42 Oeste 76 Oeste 0 996.7 -0.9 72
2019-11-23 03:00:00 16.4 35 Oeste 68 Sudoeste 0.2 996.8 -- 66
2019-11-23 02:00:00 15.8 36 Sudoeste 66 Sudoeste 0 996.9 -2.5 71
2019-11-23 01:00:00 15.5 -- -- -- -- -- 997.6 -- 85
2019-11-23 00:00:00 -- -- -- -- -- -- -- -- --
2019-11-22 23:00:00 16.5 26 Oeste -- -- -- 999.4 -0.1 91
2019-11-22 22:00:00 -- -- -- -- -- -- -- -- --
2019-11-22 21:00:00 -- -- -- -- -- -- -- -- --
2019-11-22 20:00:00 14.8 17 Oeste 33 Sudoeste 0.2 999.5 -1.9 93
2019-11-22 19:00:00 14.4 14 Oeste 26 Oeste 0.2 1000.3 -1.9 93
2019-11-22 18:00:00 14.2 17 Oeste 27 Oeste 0.2 1001 -2.3 93
2019-11-22 17:00:00 14.1 16 Oeste 24 Oeste 0.2 1001.4 -3.3 93
2019-11-22 16:00:00 14.2 12 Oeste 27 Oeste 0.4 1002.2 -3.7 93
2019-11-22 15:00:00 14.1 16 Oeste 33 Noroeste 0.4 1003.3 -3.5 93
2019-11-22 14:00:00 14.5 18 Oeste 30 Oeste 0.4 1004.7 -2.6 93
2019-11-22 13:00:00 14.6 12 Oeste 24 Sudoeste 0.6 1005.9 -2 93
2019-11-22 12:00:00 14.7 8 Oeste 20 Oeste 0.6 1006.8 -- 93
2019-11-22 11:00:00 14.6 6 Oeste -- -- -- 1007.3 0.1 93
2019-11-22 10:00:00 14.4 12 Oeste -- -- -- 1007.9 0.7 93
2019-11-22 09:00:00 -- -- -- -- -- -- -- -- --
2019-11-22 08:00:00 14.7 21 Oeste 46 Oeste 1.2 1007.2 -0.6 92
2019-11-22 07:00:00 14.7 24 Oeste -- -- -- 1007.2 -0.6 91
2019-11-22 06:00:00 15.1 16 Oeste 30 Sudoeste 0.4 1007.5 -0.7 90
2019-11-22 05:00:00 15.1 13 Oeste 27 Oeste 0 1007.8 -1 90
2019-11-22 04:00:00 14.9 12 Oeste 33 Oeste 0 1007.8 -1.5 90
2019-11-22 03:00:00 14.9 14 Oeste 24 Sudoeste 0 1008.2 -1.5 91
2019-11-22 02:00:00 14.7 10 Oeste 17 Sudoeste 0 1008.8 -1.1 91
2019-11-22 01:00:00 14.3 7 Oeste 17 Oeste 0 1009.3 -0.7 90
2019-11-22 00:00:00 13.8 10 Oeste 15 Noroeste 0.2 1009.7 -0.3 90
2019-11-21 23:00:00 13.7 13 Oeste 22 Oeste 0.2 1009.9 0 89
2019-11-21 22:00:00 13.9 15 Oeste 28 Oeste 0 1010 0.3 88
2019-11-21 21:00:00 13.8 17 Oeste 31 Oeste 0.4 1010 0.6 87
2019-11-21 20:00:00 14.6 17 Oeste 27 Oeste 0 1009.9 0.6 85
2019-11-21 19:00:00 15.3 17 Oeste 27 Oeste 0 1009.7 0.4 82
2019-11-21 18:00:00 15.6 14 Oeste 31 Oeste 0 1009.4 -0.2 80
2019-11-21 17:00:00 16 17 Oeste 33 Oeste 0 1009.3 -0.8 79
2019-11-21 16:00:00 16.2 17 Oeste 41 Oeste 0 1009.3 -1.6 77
2019-11-21 15:00:00 17 26 Oeste 43 Oeste 0 1009.6 -2.3 73
2019-11-21 14:00:00 16.5 27 Oeste 44 Oeste 0 1010.1 -1.5 73
2019-11-21 13:00:00 15.4 22 Oeste 42 Oeste 0 1010.9 -0.4 82
2019-11-21 12:00:00 15.3 18 Oeste 37 Oeste 0 1011.9 0.9 82
2019-11-21 11:00:00 15 26 Oeste 39 Oeste 0 1011.6 0.9 83
2019-11-21 10:00:00 14.7 22 Oeste 36 Oeste 0 1011.3 0.9 84
2019-11-21 09:00:00 14.4 24 Oeste 41 Oeste 0 1011 0.7 84
2019-11-21 08:00:00 -- -- -- -- -- -- -- -- --
2019-11-21 07:00:00 -- -- -- -- -- -- -- -- --
2019-11-21 06:00:00 -- -- -- -- -- -- -- -- --
2019-11-21 05:00:00 -- -- -- -- -- -- -- -- --
2019-11-21 04:00:00 -- -- -- -- -- -- -- -- --
2019-11-21 03:00:00 -- -- -- -- -- -- -- -- --
2019-11-21 02:00:00 -- -- -- -- -- -- -- -- --
2019-11-21 01:00:00 -- -- -- -- -- -- -- -- --
2019-11-21 00:00:00 -- -- -- -- -- -- -- -- --
2019-11-20 23:00:00 -- -- -- -- -- -- -- -- --
2019-11-20 22:00:00 -- -- -- -- -- -- -- -- --
2019-11-20 21:00:00 -- -- -- -- -- -- -- -- --
2019-11-20 20:00:00 -- -- -- -- -- -- -- -- --
2019-11-20 19:00:00 14.5 25 Oeste 39 Oeste 0 1011.1 0.3 74
2019-11-20 18:00:00 14.5 23 Oeste 43 Oeste 0 1010.7 0.1 74
2019-11-20 17:00:00 14 26 Oeste 55 Oeste 0.2 1010.4 -1.1 78
2019-11-20 16:00:00 15.1 36 Oeste 52 Oeste 0 1010.8 -1.6 71
2019-11-20 15:00:00 17.1 19 Oeste 37 Sudoeste 0 1010.6 -2.5 55
2019-11-20 14:00:00 17.5 16 Oeste 36 Oeste 0 1011.5 -1.9 55
2019-11-20 13:00:00 17.3 17 Sudoeste 31 Sudoeste 0 1012.4 -1 59
2019-11-20 12:00:00 16.5 12 Oeste 24 Sudoeste 0 1013.1 0 60
2019-11-20 11:00:00 14.5 11 Sudoeste 15 Sudoeste 0 1013.4 0.4 65
2019-11-20 10:00:00 10.8 4 Norte 9 Norte 0 1013.4 0.4 84
2019-11-20 09:00:00 7.5 8 Norte 10 Norte 0 1013.1 0 85
2019-11-20 08:00:00 7.6 8 Norte 11 Norte 0 1013 -0.4 84
2019-11-20 07:00:00 8.8 6 Norte 8 Norte 0 1013 -0.9 84
2019-11-20 06:00:00 9.6 6 Norte 8 Norte 0 1013.1 -1 83
2019-11-20 05:00:00 10.1 5 Norte 9 Norte 0 1013.4 -1.1 83
2019-11-20 04:00:00 9.9 7 Norte 9 Norte 0 1013.9 -1 83
2019-11-20 03:00:00 9.8 7 Nordeste 10 Norte 0 1014.1 -1.2 83
2019-11-20 02:00:00 9.9 6 Norte 9 Nordeste 0 1014.5 -1 83
2019-11-20 01:00:00 9.9 5 Nordeste 7 Nordeste 0 1014.9 -0.4 83
2019-11-20 00:00:00 10.3 3 Norte 6 Norte 0 1015.3 -0.2 82
2019-11-19 23:00:00 10.1 5 Noroeste 11 Oeste 0 1015.5 -0.3 80
2019-11-19 22:00:00 9.8 10 Noroeste 11 Noroeste 0 1015.3 -0.1 79
2019-11-19 21:00:00 10.5 8 Noroeste 10 Noroeste 0 1015.5 0.2 74
2019-11-19 20:00:00 11.5 8 Noroeste 12 Oeste 0 1015.8 0.5 66
2019-11-19 19:00:00 12.8 8 Oeste 17 Oeste 0 1015.4 -0.1 62
2019-11-19 18:00:00 14.9 13 Oeste 30 Oeste 0 1015.3 -0.5 56
2019-11-19 17:00:00 16.2 22 Oeste 31 Oeste 0 1015.3 -1 53
2019-11-19 16:00:00 17.3 12 Oeste 21 Oeste 0 1015.5 -1.6 51
2019-11-19 15:00:00 17.3 6 Sur 14 Sudeste 0 1015.8 -2 49
2019-11-19 14:00:00 17.7 8 Sudeste 16 Este 0 1016.3 -1.7 45
2019-11-19 13:00:00 17.8 11 Este 21 Este 0 1017.1 -0.9 44
2019-11-19 12:00:00 17.7 12 Este 22 Este 0 1017.8 0 45
2019-11-19 11:00:00 16.3 10 Nordeste 16 Norte 0 1018 0.4 50
2019-11-19 10:00:00 12 9 Norte 15 Nordeste 0 1018 0.9 72
2019-11-19 09:00:00 8.5 10 Norte 15 Norte 0 1017.8 1 82
2019-11-19 08:00:00 7.3 8 Norte 13 Norte 0 1017.6 0.8 84
2019-11-19 07:00:00 6.5 9 Norte 12 Norte 0 1017.1 0.4 82
2019-11-19 06:00:00 6.7 6 Nordeste 10 Nordeste 0 1016.8 0.1 81
2019-11-19 05:00:00 7.4 8 Nordeste 13 Este 0 1016.8 -0.1 79
2019-11-19 04:00:00 7 8 Norte 13 Norte 0 1016.7 -0.2 78
2019-11-19 03:00:00 7.1 10 Norte 13 Norte 0 1016.7 0 80
2019-11-19 02:00:00 7.8 10 Norte 12 Norte 0 1016.9 0.6 81
2019-11-19 01:00:00 7.9 10 Norte 14 Norte 0 1016.9 0.9 82
2019-11-19 00:00:00 8.3 8 Norte 11 Norte 0 1016.7 1.3 82
2019-11-18 23:00:00 9 9 Norte 14 Norte 0 1016.3 1.6 81
2019-11-18 22:00:00 8.9 8 Norte 12 Norte 0 1016 2.2 79
2019-11-18 21:00:00 10.3 5 Norte 12 Norte 0 1015.4 2.3 77
2019-11-18 20:00:00 11.3 6 Norte 8 Norte 0 1014.7 2.3 71
2019-11-18 19:00:00 13.7 3 Norte 6 Oeste 0 1013.8 2.1 64
2019-11-18 18:00:00 16.5 5 Sudoeste 12 Sudoeste 0 1013.1 2.1 62
2019-11-18 17:00:00 17.8 8 Sudoeste 18 Sudoeste 0 1012.4 1.5 58
2019-11-18 16:00:00 17.4 11 Sudoeste 19 Sudoeste 0 1011.7 0.7 61
2019-11-18 15:00:00 17.8 11 Sur 24 Sur 0 1011 0.6 55
2019-11-18 14:00:00 18.2 17 Sur 29 Sur 0 1010.9 1 52
2019-11-18 13:00:00 18 15 Sur 31 Sur 0 1011 1.9 57
2019-11-18 12:00:00 17.2 21 Sudeste 42 Sudeste 0 1010.4 1.7 57
2019-11-18 11:00:00 17.3 14 Sudeste 24 Este 0 1009.9 1.8 70
2019-11-18 10:00:00 15.2 8 Sudeste 18 Sudeste 0 1009.1 1 87
2019-11-18 09:00:00 13.7 7 Norte 47 Oeste 0 1008.7 1 87
2019-11-18 08:00:00 14.4 26 Oeste 52 Oeste 0 1008.1 0.1 87
2019-11-18 07:00:00 15.2 38 Oeste 67 Oeste 0.2 1008.1 -0.9 87
2019-11-18 06:00:00 15 36 Oeste 62 Oeste 0 1007.7 -2.3 88
2019-11-18 05:00:00 15.1 40 Oeste 65 Oeste 0 1008 -1.3 87
2019-11-18 04:00:00 15.2 40 Oeste 71 Oeste 0 1009 -1.3 86
2019-11-18 03:00:00 15.2 41 Oeste 80 Oeste 0 1010 -1.2 86
2019-11-18 02:00:00 15.1 46 Oeste 77 Oeste 0 1009.3 -2.9 86
2019-11-18 01:00:00 14.9 38 Oeste 71 Oeste 0 1010.3 -1.8 86
2019-11-18 00:00:00 14.9 48 Oeste 76 Oeste 0 1011.2 -1.9 85
2019-11-17 23:00:00 14.9 39 Oeste 71 Oeste 0 1012.2 -1 86
2019-11-17 22:00:00 14.6 48 Oeste 75 Oeste 0 1012.1 -1.4 85
2019-11-17 21:00:00 14.4 41 Oeste 71 Oeste 0 1013.1 -1.1 83
2019-11-17 20:00:00 14.6 42 Oeste 66 Oeste 0 1013.2 -1 82
2019-11-17 19:00:00 14.8 42 Oeste 64 Oeste 0 1013.5 -1.1 78
2019-11-17 18:00:00 15 33 Oeste 62 Oeste 0 1014.2 -0.6 75
2019-11-17 17:00:00 15.9 44 Oeste 66 Oeste 0 1014.2 -1.5 69
2019-11-17 16:00:00 15.8 35 Oeste 65 Oeste 0 1014.6 -1.9 65
2019-11-17 15:00:00 16.5 39 Oeste 67 Oeste 0 1014.8 -2.5 53
2019-11-17 14:00:00 15.1 36 Oeste 54 Oeste 0 1015.7 -2 56
2019-11-17 13:00:00 15.3 29 Oeste 45 Oeste 0 1016.5 -1.1 56
2019-11-17 12:00:00 16.5 9 Oeste 19 Oeste 0 1017.3 0.3 39
2019-11-17 11:00:00 15 7 Sudoeste 12 Sudoeste 0 1017.7 1.1 47
2019-11-17 10:00:00 11.3 3 Oeste 10 Norte 0 1017.6 1.4 59
2019-11-17 09:00:00 5.2 7 Norte 13 Norte 0 1017 0.9 74
2019-11-17 08:00:00 4.9 8 Noroeste 12 Norte 0 1016.6 0.5 70
2019-11-17 07:00:00 4.9 8 Norte 12 Norte 0 1016.2 -0.2 67
2019-11-17 06:00:00 5.9 8 Norte 14 Norte 0 1016.1 -0.3 64
2019-11-17 05:00:00 6.1 10 Noroeste 14 Noroeste 0 1016.1 -0.6 60
2019-11-17 04:00:00 6.3 10 Noroeste 17 Norte 0 1016.4 -0.2 60
2019-11-17 03:00:00 6.7 12 Noroeste 15 Noroeste 0 1016.4 -0.2 63
2019-11-17 02:00:00 5.7 12 Noroeste 16 Noroeste 0 1016.7 0.3 69
2019-11-17 01:00:00 6.6 9 Norte 14 Norte 0 1016.6 0.3 76
2019-11-17 00:00:00 8.3 9 Nordeste 16 Nordeste 0 1016.6 1.1 78
2019-11-16 23:00:00 7.9 13 Nordeste 17 Nordeste 0 1016.4 1.3 79
2019-11-16 22:00:00 6.7 9 Nordeste 13 Nordeste 0 1016.3 1.7 78
2019-11-16 21:00:00 8.1 6 Norte 12 Nordeste 0 1015.5 1.2 74
2019-11-16 20:00:00 10.4 10 Norte 13 Nordeste 0 1015.1 1.1 67
2019-11-16 19:00:00 13.4 9 Oeste 32 Oeste 0 1014.6 0.9 62
2019-11-16 18:00:00 14.7 22 Oeste 36 Oeste 0 1014.3 0.9 53
2019-11-16 17:00:00 15.6 22 Oeste 43 Oeste 0 1014 0.6 41
2019-11-16 16:00:00 15.3 30 Oeste 42 Oeste 0 1013.7 0.2 49
2019-11-16 15:00:00 16.4 21 Oeste 37 Oeste 0 1013.4 -0.2 42
2019-11-16 14:00:00 16.3 12 Oeste 22 Oeste 0 1013.4 0.1 42
2019-11-16 13:00:00 15.4 8 Sur 17 Sur 0 1013.5 0.9 41
2019-11-16 12:00:00 15.7 8 Sur 16 Sur 0 1013.6 1.9 43
2019-11-16 11:00:00 15.6 8 Sur 15 Este 0 1013.3 2.5 47
2019-11-16 10:00:00 12.1 6 Nordeste 10 Este 0 1012.6 2.7 54
2019-11-16 09:00:00 5.1 7 Norte 10 Nordeste 0 1011.7 2.4 71
2019-11-16 08:00:00 3.7 9 Nordeste 10 Nordeste 0 1010.8 1.9 70
2019-11-16 07:00:00 4 7 Nordeste 12 Nordeste 0 1009.9 1.3 69
2019-11-16 06:00:00 4.3 8 Norte 12 Norte 0 1009.3 0.8 68
2019-11-16 05:00:00 5.1 10 Norte 14 Norte 0 1008.9 0.8 68
2019-11-16 04:00:00 5.6 10 Noroeste 15 Noroeste 0 1008.6 0.7 65
2019-11-16 03:00:00 7 12 Noroeste 17 Noroeste 0 1008.5 1 63
2019-11-16 02:00:00 6.5 10 Noroeste 20 Noroeste 0 1008.1 1.1 65
2019-11-16 01:00:00 5.2 12 Norte 19 Norte 0 1007.9 1.5 72
2019-11-16 00:00:00 5.7 4 Norte 13 Norte 0 1007.5 1.4 69
2019-11-15 23:00:00 6.7 8 Nordeste 13 Este 0 1007 1.5 66
2019-11-15 22:00:00 8.2 12 Este 16 Nordeste 0 1006.4 1.3 64
2019-11-15 21:00:00 11.6 7 Noroeste 26 Oeste 0 1006.1 1.3 47
2019-11-15 20:00:00 12.9 20 Oeste 36 Oeste 0 1005.5 0.6 45
2019-11-15 19:00:00 13 19 Oeste 47 Oeste 0 1005.1 0 41
2019-11-15 18:00:00 13.9 30 Oeste 47 Oeste 0 1004.8 -0.5 50
2019-11-15 17:00:00 14.4 29 Oeste 55 Oeste 0 1004.9 -0.5 51
2019-11-15 16:00:00 14.6 36 Oeste 52 Oeste 0 1005.1 -0.8 52
2019-11-15 15:00:00 14.3 29 Oeste 53 Oeste 0 1005.3 -0.7 52
2019-11-15 14:00:00 14.7 24 Oeste 44 Oeste 0 1005.4 -0.3 52
2019-11-15 13:00:00 15.9 18 Oeste 36 Oeste 0 1005.9 0.8 41
2019-11-15 12:00:00 16.5 12 Este 29 Sudeste 0 1006 1.3 34
2019-11-15 11:00:00 15.6 6 Este 14 Este 0 1005.7 2 35
2019-11-15 10:00:00 13.8 4 Noroeste 32 Oeste 0 1005.1 2.1 42
2019-11-15 09:00:00 11.8 15 Oeste 48 Oeste 0 1004.7 1.7 53
2019-11-15 08:00:00 12.3 26 Oeste 67 Oeste 0 1003.7 0 57
2019-11-15 07:00:00 12.4 37 Oeste 63 Oeste 0 1003 -1.3 53
2019-11-15 06:00:00 13 43 Oeste 80 Oeste 0 1003 -1.5 53
2019-11-15 05:00:00 13.4 31 Oeste 69 Oeste 0 1003.7 -0.5 55
2019-11-15 04:00:00 13.8 45 Oeste 73 Oeste 0 1004.3 -0.3 56
2019-11-15 03:00:00 13.5 37 Oeste 63 Oeste 0 1004.5 0 55
2019-11-15 02:00:00 13.6 42 Oeste 72 Oeste 0 1004.2 -1 56
2019-11-15 01:00:00 13.8 44 Oeste 65 Oeste 0 1004.6 -0.1 56
2019-11-15 00:00:00 12.8 23 Oeste 40 Oeste 0 1004.5 0.5 64